Flugplatz Borkenberge

Für EDLB sind keine METAR/TAF Berichte vorhanden.
Es werden die Flugwettermeldungen vom Flugplatz Dortmund in 36 km Entfernung angezeigt.

Bericht für EDLW

vom 31.03. um 22:20 UTC

Wind 4 kt aus 120°

Sichtweite 10 km oder mehr

keine Wolken

Temperatur 2.0°C

Taupunkt -5.0°C

Luftfeuchtigkeit 60%

Luftdruck 1026 hPa

EDLW 312220Z AUTO 12004KT 9999 // NCD 02/M05 Q1026

Prognose für EDLW

vom 31.03. um 17:00 UTC

Am 31.03. zwischen 18:00 UTC und 18:00 UTC

Wind 5 kt aus 50°

Sichtweite 10 km oder mehr

keine signifikanten Wettererscheinungen

keine Wolken


Am 31.03. zwischen 18:00 und 21:00 UTC übergehend zu

Wind 4 kt aus 170°

Sichtweite 10 km oder mehr

keine signifikanten Wettererscheinungen

keine Wolken


Zwischen 08:00 und 10:00 UTC übergehend zu

Wind 5 kt aus 320°

Sichtweite 10 km oder mehr

keine signifikanten Wettererscheinungen

keine Wolken

TAF EDLW 311700Z 3118/0118 05005KT CAVOK BECMG 3118/3121 17004KT BECMG 0108/0110 32005KT
Impressum